sensor_id;sensor_type;location;lat;lon;timestamp;P1;durP1;ratioP1;P2;durP2;ratioP2
35757;SDS011;21879;50.110;18.900;2023-05-07T00:04:43;16.20;;;12.50;;
35757;SDS011;21879;50.110;18.900;2023-05-07T00:15:10;14.10;;;10.30;;
35757;SDS011;21879;50.110;18.900;2023-05-07T00:25:36;13.40;;;10.20;;
35757;SDS011;21879;50.110;18.900;2023-05-07T00:36:02;14.40;;;10.60;;
35757;SDS011;21879;50.110;18.900;2023-05-07T00:46:28;14.00;;;9.50;;
35757;SDS011;21879;50.110;18.900;2023-05-07T00:56:56;10.50;;;8.20;;
35757;SDS011;21879;50.110;18.900;2023-05-07T01:07:23;11.70;;;9.40;;
35757;SDS011;21879;50.110;18.900;2023-05-07T01:17:50;14.50;;;9.60;;
35757;SDS011;21879;50.110;18.900;2023-05-07T01:28:16;13.30;;;9.00;;
35757;SDS011;21879;50.110;18.900;2023-05-07T01:38:42;14.40;;;8.80;;
35757;SDS011;21879;50.110;18.900;2023-05-07T01:49:08;10.00;;;7.40;;
35757;SDS011;21879;50.110;18.900;2023-05-07T01:59:34;12.10;;;7.50;;
35757;SDS011;21879;50.110;18.900;2023-05-07T02:10:00;9.70;;;7.00;;
35757;SDS011;21879;50.110;18.900;2023-05-07T02:20:27;11.20;;;7.80;;
35757;SDS011;21879;50.110;18.900;2023-05-07T02:30:52;10.30;;;7.90;;
35757;SDS011;21879;50.110;18.900;2023-05-07T02:41:18;9.70;;;7.20;;
35757;SDS011;21879;50.110;18.900;2023-05-07T02:51:44;13.90;;;8.60;;
35757;SDS011;21879;50.110;18.900;2023-05-07T03:02:10;12.70;;;7.70;;
35757;SDS011;21879;50.110;18.900;2023-05-07T03:12:36;10.00;;;7.00;;
35757;SDS011;21879;50.110;18.900;2023-05-07T03:23:02;9.60;;;6.60;;
35757;SDS011;21879;50.110;18.900;2023-05-07T03:33:28;19.80;;;14.10;;
35757;SDS011;21879;50.110;18.900;2023-05-07T03:43:56;13.00;;;9.90;;
35757;SDS011;21879;50.110;18.900;2023-05-07T03:54:22;12.60;;;9.30;;
35757;SDS011;21879;50.110;18.900;2023-05-07T04:04:49;12.70;;;9.10;;
35757;SDS011;21879;50.110;18.900;2023-05-07T04:15:15;12.10;;;9.20;;
35757;SDS011;21879;50.110;18.900;2023-05-07T04:25:41;10.30;;;6.80;;
35757;SDS011;21879;50.110;18.900;2023-05-07T04:36:08;10.30;;;6.20;;
35757;SDS011;21879;50.110;18.900;2023-05-07T04:46:34;7.50;;;5.00;;
35757;SDS011;21879;50.110;18.900;2023-05-07T04:57:00;8.50;;;6.00;;
35757;SDS011;21879;50.110;18.900;2023-05-07T05:07:27;6.00;;;4.10;;
35757;SDS011;21879;50.110;18.900;2023-05-07T05:17:54;4.50;;;3.10;;
35757;SDS011;21879;50.110;18.900;2023-05-07T05:28:19;4.80;;;3.90;;
35757;SDS011;21879;50.110;18.900;2023-05-07T05:38:48;7.80;;;3.80;;
35757;SDS011;21879;50.110;18.900;2023-05-07T05:49:14;5.00;;;3.50;;
35757;SDS011;21879;50.110;18.900;2023-05-07T05:59:39;4.80;;;3.40;;
35757;SDS011;21879;50.110;18.900;2023-05-07T06:10:06;5.60;;;3.10;;
35757;SDS011;21879;50.110;18.900;2023-05-07T06:20:32;5.10;;;3.50;;
35757;SDS011;21879;50.110;18.900;2023-05-07T06:31:11;3.30;;;2.30;;
35757;SDS011;21879;50.110;18.900;2023-05-07T06:41:38;5.70;;;3.00;;
35757;SDS011;21879;50.110;18.900;2023-05-07T06:52:04;4.80;;;2.80;;
35757;SDS011;21879;50.110;18.900;2023-05-07T07:02:30;7.00;;;3.70;;
35757;SDS011;21879;50.110;18.900;2023-05-07T07:12:56;5.70;;;3.10;;
35757;SDS011;21879;50.110;18.900;2023-05-07T07:23:21;4.40;;;2.60;;
35757;SDS011;21879;50.110;18.900;2023-05-07T07:33:48;5.60;;;3.50;;
35757;SDS011;21879;50.110;18.900;2023-05-07T07:44:14;5.90;;;4.20;;
35757;SDS011;21879;50.110;18.900;2023-05-07T07:54:40;6.00;;;3.00;;
35757;SDS011;21879;50.110;18.900;2023-05-07T08:05:07;4.80;;;3.50;;
35757;SDS011;21879;50.110;18.900;2023-05-07T08:15:33;3.20;;;2.50;;
35757;SDS011;21879;50.110;18.900;2023-05-07T08:25:59;5.70;;;3.00;;
35757;SDS011;21879;50.110;18.900;2023-05-07T08:36:25;4.10;;;3.00;;
35757;SDS011;21879;50.110;18.900;2023-05-07T08:46:51;4.30;;;2.70;;
35757;SDS011;21879;50.110;18.900;2023-05-07T08:57:19;5.10;;;2.80;;
35757;SDS011;21879;50.110;18.900;2023-05-07T09:07:47;4.50;;;3.20;;
35757;SDS011;21879;50.110;18.900;2023-05-07T09:18:16;4.30;;;3.00;;
35757;SDS011;21879;50.110;18.900;2023-05-07T09:28:41;4.40;;;2.90;;
35757;SDS011;21879;50.110;18.900;2023-05-07T09:39:09;4.80;;;3.60;;
35757;SDS011;21879;50.110;18.900;2023-05-07T09:49:36;5.10;;;4.10;;
35757;SDS011;21879;50.110;18.900;2023-05-07T10:00:06;7.20;;;5.70;;
35757;SDS011;21879;50.110;18.900;2023-05-07T10:10:33;4.60;;;3.10;;
35757;SDS011;21879;50.110;18.900;2023-05-07T10:21:01;3.90;;;2.80;;
35757;SDS011;21879;50.110;18.900;2023-05-07T10:31:35;7.30;;;4.80;;
35757;SDS011;21879;50.110;18.900;2023-05-07T10:42:17;6.40;;;3.80;;
35757;SDS011;21879;50.110;18.900;2023-05-07T10:52:43;6.70;;;4.20;;
35757;SDS011;21879;50.110;18.900;2023-05-07T11:03:08;11.60;;;8.10;;
35757;SDS011;21879;50.110;18.900;2023-05-07T11:13:44;8.90;;;5.30;;
35757;SDS011;21879;50.110;18.900;2023-05-07T11:24:12;6.10;;;4.40;;
35757;SDS011;21879;50.110;18.900;2023-05-07T11:34:39;10.60;;;8.40;;
35757;SDS011;21879;50.110;18.900;2023-05-07T11:45:05;12.70;;;8.80;;
35757;SDS011;21879;50.110;18.900;2023-05-07T11:55:33;13.00;;;9.10;;
35757;SDS011;21879;50.110;18.900;2023-05-07T12:06:00;10.50;;;8.70;;
35757;SDS011;21879;50.110;18.900;2023-05-07T12:16:26;12.70;;;9.60;;
35757;SDS011;21879;50.110;18.900;2023-05-07T12:26:52;12.00;;;9.30;;
35757;SDS011;21879;50.110;18.900;2023-05-07T12:37:22;7.10;;;5.90;;
35757;SDS011;21879;50.110;18.900;2023-05-07T12:47:53;7.80;;;5.00;;
35757;SDS011;21879;50.110;18.900;2023-05-07T12:58:19;6.70;;;5.50;;
35757;SDS011;21879;50.110;18.900;2023-05-07T13:08:47;6.70;;;4.40;;
35757;SDS011;21879;50.110;18.900;2023-05-07T13:19:13;5.80;;;3.90;;
35757;SDS011;21879;50.110;18.900;2023-05-07T13:29:40;5.90;;;3.30;;
35757;SDS011;21879;50.110;18.900;2023-05-07T13:40:07;4.80;;;2.80;;
35757;SDS011;21879;50.110;18.900;2023-05-07T13:50:33;6.10;;;4.10;;
35757;SDS011;21879;50.110;18.900;2023-05-07T14:00:59;5.70;;;3.10;;
35757;SDS011;21879;50.110;18.900;2023-05-07T14:11:25;3.80;;;2.90;;
35757;SDS011;21879;50.110;18.900;2023-05-07T14:21:50;4.20;;;2.80;;
35757;SDS011;21879;50.110;18.900;2023-05-07T14:32:18;5.20;;;3.50;;
35757;SDS011;21879;50.110;18.900;2023-05-07T14:42:43;4.80;;;3.50;;
35757;SDS011;21879;50.110;18.900;2023-05-07T14:53:10;3.30;;;2.10;;
35757;SDS011;21879;50.110;18.900;2023-05-07T15:03:36;4.00;;;2.60;;
35757;SDS011;21879;50.110;18.900;2023-05-07T15:14:01;6.60;;;4.90;;
35757;SDS011;21879;50.110;18.900;2023-05-07T15:24:27;5.00;;;3.60;;
35757;SDS011;21879;50.110;18.900;2023-05-07T15:34:53;5.50;;;3.50;;
35757;SDS011;21879;50.110;18.900;2023-05-07T15:45:19;5.60;;;3.40;;
35757;SDS011;21879;50.110;18.900;2023-05-07T15:55:45;4.30;;;3.50;;
35757;SDS011;21879;50.110;18.900;2023-05-07T16:06:11;5.10;;;4.20;;
35757;SDS011;21879;50.110;18.900;2023-05-07T16:16:37;7.90;;;4.40;;
35757;SDS011;21879;50.110;18.900;2023-05-07T16:27:03;8.40;;;4.80;;
35757;SDS011;21879;50.110;18.900;2023-05-07T16:37:30;6.60;;;4.60;;
35757;SDS011;21879;50.110;18.900;2023-05-07T16:47:56;6.90;;;4.30;;
35757;SDS011;21879;50.110;18.900;2023-05-07T16:58:22;8.00;;;5.40;;
35757;SDS011;21879;50.110;18.900;2023-05-07T17:08:49;7.80;;;5.10;;
35757;SDS011;21879;50.110;18.900;2023-05-07T17:19:15;8.00;;;5.00;;
35757;SDS011;21879;50.110;18.900;2023-05-07T17:29:41;6.60;;;5.30;;
35757;SDS011;21879;50.110;18.900;2023-05-07T17:40:08;8.40;;;5.80;;
35757;SDS011;21879;50.110;18.900;2023-05-07T17:50:34;7.60;;;5.00;;
35757;SDS011;21879;50.110;18.900;2023-05-07T18:01:00;5.90;;;4.40;;
35757;SDS011;21879;50.110;18.900;2023-05-07T18:11:26;9.20;;;4.90;;
35757;SDS011;21879;50.110;18.900;2023-05-07T18:21:54;9.30;;;5.70;;
35757;SDS011;21879;50.110;18.900;2023-05-07T18:32:20;8.20;;;5.20;;
35757;SDS011;21879;50.110;18.900;2023-05-07T18:42:46;8.30;;;6.00;;
35757;SDS011;21879;50.110;18.900;2023-05-07T18:53:12;7.40;;;5.30;;
35757;SDS011;21879;50.110;18.900;2023-05-07T19:03:38;12.70;;;6.80;;
35757;SDS011;21879;50.110;18.900;2023-05-07T19:14:04;7.90;;;5.70;;
35757;SDS011;21879;50.110;18.900;2023-05-07T19:24:30;7.10;;;5.10;;
35757;SDS011;21879;50.110;18.900;2023-05-07T19:34:56;8.30;;;5.30;;
35757;SDS011;21879;50.110;18.900;2023-05-07T19:45:22;7.90;;;5.20;;
35757;SDS011;21879;50.110;18.900;2023-05-07T19:55:48;7.10;;;4.90;;
35757;SDS011;21879;50.110;18.900;2023-05-07T20:06:23;6.50;;;4.00;;
35757;SDS011;21879;50.110;18.900;2023-05-07T20:16:48;8.10;;;5.10;;
35757;SDS011;21879;50.110;18.900;2023-05-07T20:27:14;10.80;;;4.90;;
35757;SDS011;21879;50.110;18.900;2023-05-07T20:37:43;8.10;;;5.10;;
35757;SDS011;21879;50.110;18.900;2023-05-07T20:48:09;6.90;;;4.10;;
35757;SDS011;21879;50.110;18.900;2023-05-07T20:58:36;8.60;;;5.00;;
35757;SDS011;21879;50.110;18.900;2023-05-07T21:09:02;7.40;;;4.10;;
35757;SDS011;21879;50.110;18.900;2023-05-07T21:19:28;6.90;;;4.00;;
35757;SDS011;21879;50.110;18.900;2023-05-07T21:29:55;5.90;;;3.80;;
35757;SDS011;21879;50.110;18.900;2023-05-07T21:40:27;7.30;;;4.70;;
35757;SDS011;21879;50.110;18.900;2023-05-07T21:50:59;5.50;;;3.90;;
35757;SDS011;21879;50.110;18.900;2023-05-07T22:01:26;5.70;;;4.00;;
35757;SDS011;21879;50.110;18.900;2023-05-07T22:11:52;6.70;;;4.20;;
35757;SDS011;21879;50.110;18.900;2023-05-07T22:22:18;7.70;;;3.80;;
35757;SDS011;21879;50.110;18.900;2023-05-07T22:32:44;9.40;;;4.20;;
35757;SDS011;21879;50.110;18.900;2023-05-07T22:43:10;6.40;;;3.90;;
35757;SDS011;21879;50.110;18.900;2023-05-07T22:53:36;5.90;;;3.90;;
35757;SDS011;21879;50.110;18.900;2023-05-07T23:04:02;6.50;;;4.10;;
35757;SDS011;21879;50.110;18.900;2023-05-07T23:14:28;4.70;;;3.60;;
35757;SDS011;21879;50.110;18.900;2023-05-07T23:24:54;5.70;;;3.60;;
35757;SDS011;21879;50.110;18.900;2023-05-07T23:35:20;5.80;;;3.40;;
35757;SDS011;21879;50.110;18.900;2023-05-07T23:45:46;6.60;;;3.10;;
35757;SDS011;21879;50.110;18.900;2023-05-07T23:56:11;7.00;;;3.90;;
